sensor_id;sensor_type;location;lat;lon;timestamp;temperature;humidity
20881;DHT22;10600;53.096;8.802;2023-04-03T00:00:39;1.60;99.90
20881;DHT22;10600;53.096;8.802;2023-04-03T00:01:40;1.60;99.90
20881;DHT22;10600;53.096;8.802;2023-04-03T00:02:41;1.60;99.90
20881;DHT22;10600;53.096;8.802;2023-04-03T00:03:42;1.50;99.90
20881;DHT22;10600;53.096;8.802;2023-04-03T00:04:43;1.50;99.90
20881;DHT22;10600;53.096;8.802;2023-04-03T00:05:44;1.50;99.90
20881;DHT22;10600;53.096;8.802;2023-04-03T00:06:44;1.50;99.90
20881;DHT22;10600;53.096;8.802;2023-04-03T00:07:45;1.50;99.90
20881;DHT22;10600;53.096;8.802;2023-04-03T00:08:46;1.40;99.90
20881;DHT22;10600;53.096;8.802;2023-04-03T00:09:46;1.40;99.90
20881;DHT22;10600;53.096;8.802;2023-04-03T00:10:47;1.40;99.90
20881;DHT22;10600;53.096;8.802;2023-04-03T00:11:48;1.30;99.90
20881;DHT22;10600;53.096;8.802;2023-04-03T00:12:49;1.30;99.90
20881;DHT22;10600;53.096;8.802;2023-04-03T00:13:50;1.30;99.90
20881;DHT22;10600;53.096;8.802;2023-04-03T00:14:50;1.20;99.90
20881;DHT22;10600;53.096;8.802;2023-04-03T00:15:51;1.20;99.90
20881;DHT22;10600;53.096;8.802;2023-04-03T00:16:52;1.20;99.90
20881;DHT22;10600;53.096;8.802;2023-04-03T00:17:53;1.20;99.90
20881;DHT22;10600;53.096;8.802;2023-04-03T00:18:53;1.20;99.90
20881;DHT22;10600;53.096;8.802;2023-04-03T00:19:54;1.20;99.90
20881;DHT22;10600;53.096;8.802;2023-04-03T00:20:55;1.10;99.90
20881;DHT22;10600;53.096;8.802;2023-04-03T00:21:55;1.10;99.90
20881;DHT22;10600;53.096;8.802;2023-04-03T00:22:57;1.10;99.90
20881;DHT22;10600;53.096;8.802;2023-04-03T00:23:57;1.10;99.90
20881;DHT22;10600;53.096;8.802;2023-04-03T00:24:58;1.10;99.90
20881;DHT22;10600;53.096;8.802;2023-04-03T00:25:58;1.10;99.90
20881;DHT22;10600;53.096;8.802;2023-04-03T00:26:59;1.10;99.90
20881;DHT22;10600;53.096;8.802;2023-04-03T00:28:00;1.10;99.90
20881;DHT22;10600;53.096;8.802;2023-04-03T00:29:01;1.00;99.90
20881;DHT22;10600;53.096;8.802;2023-04-03T00:30:02;1.00;99.90
20881;DHT22;10600;53.096;8.802;2023-04-03T00:31:02;1.00;99.90
20881;DHT22;10600;53.096;8.802;2023-04-03T00:32:03;1.00;99.90
20881;DHT22;10600;53.096;8.802;2023-04-03T00:33:04;1.00;99.90
20881;DHT22;10600;53.096;8.802;2023-04-03T00:34:05;1.00;99.90
20881;DHT22;10600;53.096;8.802;2023-04-03T00:35:05;1.00;99.90
20881;DHT22;10600;53.096;8.802;2023-04-03T00:36:09;1.00;99.90
20881;DHT22;10600;53.096;8.802;2023-04-03T00:37:09;1.00;99.90
20881;DHT22;10600;53.096;8.802;2023-04-03T00:38:10;1.00;99.90
20881;DHT22;10600;53.096;8.802;2023-04-03T00:39:11;1.00;99.90
20881;DHT22;10600;53.096;8.802;2023-04-03T00:40:13;0.90;99.90
20881;DHT22;10600;53.096;8.802;2023-04-03T00:41:14;0.90;99.90
20881;DHT22;10600;53.096;8.802;2023-04-03T00:42:15;0.90;99.90
20881;DHT22;10600;53.096;8.802;2023-04-03T00:43:20;0.90;99.90
20881;DHT22;10600;53.096;8.802;2023-04-03T00:45:38;0.80;99.90
20881;DHT22;10600;53.096;8.802;2023-04-03T00:46:39;0.80;99.90
20881;DHT22;10600;53.096;8.802;2023-04-03T00:47:41;0.80;99.90
20881;DHT22;10600;53.096;8.802;2023-04-03T00:48:46;0.80;99.90
20881;DHT22;10600;53.096;8.802;2023-04-03T00:49:47;0.70;99.90
20881;DHT22;10600;53.096;8.802;2023-04-03T00:50:49;0.70;99.90
20881;DHT22;10600;53.096;8.802;2023-04-03T00:51:51;0.70;99.90
20881;DHT22;10600;53.096;8.802;2023-04-03T00:52:52;0.60;99.90
20881;DHT22;10600;53.096;8.802;2023-04-03T00:53:56;0.60;99.90
20881;DHT22;10600;53.096;8.802;2023-04-03T00:55:02;0.60;99.90
20881;DHT22;10600;53.096;8.802;2023-04-03T00:56:09;0.60;99.90
20881;DHT22;10600;53.096;8.802;2023-04-03T00:57:11;0.60;99.90
20881;DHT22;10600;53.096;8.802;2023-04-03T00:58:12;0.60;99.90
20881;DHT22;10600;53.096;8.802;2023-04-03T00:59:24;0.60;99.90
20881;DHT22;10600;53.096;8.802;2023-04-03T01:00:27;0.60;99.90
20881;DHT22;10600;53.096;8.802;2023-04-03T01:01:29;0.60;99.90
20881;DHT22;10600;53.096;8.802;2023-04-03T01:02:30;0.60;99.90
20881;DHT22;10600;53.096;8.802;2023-04-03T01:03:30;0.50;99.90
20881;DHT22;10600;53.096;8.802;2023-04-03T01:04:37;0.60;99.90
20881;DHT22;10600;53.096;8.802;2023-04-03T01:05:39;0.50;99.90
20881;DHT22;10600;53.096;8.802;2023-04-03T01:06:40;0.60;99.90
20881;DHT22;10600;53.096;8.802;2023-04-03T01:07:41;0.60;99.90
20881;DHT22;10600;53.096;8.802;2023-04-03T01:08:42;0.50;99.90
20881;DHT22;10600;53.096;8.802;2023-04-03T01:09:44;0.60;99.90
20881;DHT22;10600;53.096;8.802;2023-04-03T01:10:45;0.50;99.90
20881;DHT22;10600;53.096;8.802;2023-04-03T01:11:46;0.50;99.90
20881;DHT22;10600;53.096;8.802;2023-04-03T01:12:49;0.50;99.90
20881;DHT22;10600;53.096;8.802;2023-04-03T01:13:50;0.50;99.90
20881;DHT22;10600;53.096;8.802;2023-04-03T01:14:53;0.50;99.90
20881;DHT22;10600;53.096;8.802;2023-04-03T01:15:55;0.50;99.90
20881;DHT22;10600;53.096;8.802;2023-04-03T01:16:55;0.50;99.90
20881;DHT22;10600;53.096;8.802;2023-04-03T01:17:57;0.50;99.90
20881;DHT22;10600;53.096;8.802;2023-04-03T01:18:59;0.50;99.90
20881;DHT22;10600;53.096;8.802;2023-04-03T01:22:05;0.50;99.90
20881;DHT22;10600;53.096;8.802;2023-04-03T01:24:37;0.50;99.90
20881;DHT22;10600;53.096;8.802;2023-04-03T01:25:46;0.40;99.90
20881;DHT22;10600;53.096;8.802;2023-04-03T01:26:48;0.40;99.90
20881;DHT22;10600;53.096;8.802;2023-04-03T01:27:49;0.40;99.90
20881;DHT22;10600;53.096;8.802;2023-04-03T01:28:50;0.40;99.90
20881;DHT22;10600;53.096;8.802;2023-04-03T01:29:50;0.40;99.90
20881;DHT22;10600;53.096;8.802;2023-04-03T01:31:24;0.30;99.90
20881;DHT22;10600;53.096;8.802;2023-04-03T01:32:25;0.30;99.90
20881;DHT22;10600;53.096;8.802;2023-04-03T01:33:26;0.30;99.90
20881;DHT22;10600;53.096;8.802;2023-04-03T01:34:27;0.30;99.90
20881;DHT22;10600;53.096;8.802;2023-04-03T01:35:28;0.20;99.90
20881;DHT22;10600;53.096;8.802;2023-04-03T01:36:30;0.20;99.90
20881;DHT22;10600;53.096;8.802;2023-04-03T01:37:31;0.20;99.90
20881;DHT22;10600;53.096;8.802;2023-04-03T01:38:32;0.10;99.90
20881;DHT22;10600;53.096;8.802;2023-04-03T01:39:33;0.10;99.90
20881;DHT22;10600;53.096;8.802;2023-04-03T01:40:33;0.10;99.90
20881;DHT22;10600;53.096;8.802;2023-04-03T01:41:34;0.10;99.90
20881;DHT22;10600;53.096;8.802;2023-04-03T01:42:35;0.10;99.90
20881;DHT22;10600;53.096;8.802;2023-04-03T01:43:36;0.10;99.90
20881;DHT22;10600;53.096;8.802;2023-04-03T01:44:36;0.00;99.90
20881;DHT22;10600;53.096;8.802;2023-04-03T01:45:37;0.00;99.90
20881;DHT22;10600;53.096;8.802;2023-04-03T01:46:38;0.00;99.90
20881;DHT22;10600;53.096;8.802;2023-04-03T01:47:38;0.00;99.90
20881;DHT22;10600;53.096;8.802;2023-04-03T01:48:39;0.00;99.90
20881;DHT22;10600;53.096;8.802;2023-04-03T01:49:40;0.00;99.90
20881;DHT22;10600;53.096;8.802;2023-04-03T01:50:40;0.00;99.90
20881;DHT22;10600;53.096;8.802;2023-04-03T01:51:41;-0.10;99.90
20881;DHT22;10600;53.096;8.802;2023-04-03T01:52:41;-0.10;99.90
20881;DHT22;10600;53.096;8.802;2023-04-03T01:53:42;-0.10;99.90
20881;DHT22;10600;53.096;8.802;2023-04-03T01:54:43;-0.10;99.90
20881;DHT22;10600;53.096;8.802;2023-04-03T01:55:43;-0.10;99.90
20881;DHT22;10600;53.096;8.802;2023-04-03T01:56:44;-0.10;99.90
20881;DHT22;10600;53.096;8.802;2023-04-03T01:57:45;-0.10;99.90
20881;DHT22;10600;53.096;8.802;2023-04-03T01:58:45;-0.10;99.90
20881;DHT22;10600;53.096;8.802;2023-04-03T01:59:46;-0.10;99.90
20881;DHT22;10600;53.096;8.802;2023-04-03T02:00:46;-0.10;99.90
20881;DHT22;10600;53.096;8.802;2023-04-03T02:01:48;-0.10;99.90
20881;DHT22;10600;53.096;8.802;2023-04-03T02:02:48;-0.20;99.90
20881;DHT22;10600;53.096;8.802;2023-04-03T02:03:49;-0.20;99.90
20881;DHT22;10600;53.096;8.802;2023-04-03T02:04:50;-0.20;99.90
20881;DHT22;10600;53.096;8.802;2023-04-03T02:05:50;-0.20;99.90
20881;DHT22;10600;53.096;8.802;2023-04-03T02:06:51;-0.20;99.90
20881;DHT22;10600;53.096;8.802;2023-04-03T02:07:51;-0.20;99.90
20881;DHT22;10600;53.096;8.802;2023-04-03T02:08:52;-0.20;99.90
20881;DHT22;10600;53.096;8.802;2023-04-03T02:09:53;-0.20;99.90
20881;DHT22;10600;53.096;8.802;2023-04-03T02:10:53;-0.20;99.90
20881;DHT22;10600;53.096;8.802;2023-04-03T02:11:54;-0.20;99.90
20881;DHT22;10600;53.096;8.802;2023-04-03T02:12:55;-0.20;99.90
20881;DHT22;10600;53.096;8.802;2023-04-03T02:13:56;-0.20;99.90
20881;DHT22;10600;53.096;8.802;2023-04-03T02:14:56;-0.20;99.90
20881;DHT22;10600;53.096;8.802;2023-04-03T02:15:57;-0.20;99.90
20881;DHT22;10600;53.096;8.802;2023-04-03T02:16:58;-0.30;99.90
20881;DHT22;10600;53.096;8.802;2023-04-03T02:18:01;-0.20;99.90
20881;DHT22;10600;53.096;8.802;2023-04-03T02:19:01;-0.30;99.90
20881;DHT22;10600;53.096;8.802;2023-04-03T02:20:02;-0.20;99.90
20881;DHT22;10600;53.096;8.802;2023-04-03T02:21:03;-0.30;99.90
20881;DHT22;10600;53.096;8.802;2023-04-03T02:22:05;-0.30;99.90
20881;DHT22;10600;53.096;8.802;2023-04-03T02:23:06;-0.30;99.90
20881;DHT22;10600;53.096;8.802;2023-04-03T02:24:06;-0.30;99.90
20881;DHT22;10600;53.096;8.802;2023-04-03T02:25:07;-0.30;99.90
20881;DHT22;10600;53.096;8.802;2023-04-03T02:26:10;-0.30;99.90
20881;DHT22;10600;53.096;8.802;2023-04-03T02:27:11;-0.30;99.90
20881;DHT22;10600;53.096;8.802;2023-04-03T02:28:12;-0.30;99.90
20881;DHT22;10600;53.096;8.802;2023-04-03T02:29:12;-0.30;99.90
20881;DHT22;10600;53.096;8.802;2023-04-03T02:30:13;-0.30;99.90
20881;DHT22;10600;53.096;8.802;2023-04-03T02:31:15;-0.30;99.90
20881;DHT22;10600;53.096;8.802;2023-04-03T02:32:15;-0.30;99.90
20881;DHT22;10600;53.096;8.802;2023-04-03T02:33:16;-0.30;99.90
20881;DHT22;10600;53.096;8.802;2023-04-03T02:34:17;-0.30;99.90
20881;DHT22;10600;53.096;8.802;2023-04-03T02:35:18;-0.30;99.90
20881;DHT22;10600;53.096;8.802;2023-04-03T02:36:19;-0.30;99.90
20881;DHT22;10600;53.096;8.802;2023-04-03T02:37:19;-0.30;99.90
20881;DHT22;10600;53.096;8.802;2023-04-03T02:38:21;-0.30;99.90
20881;DHT22;10600;53.096;8.802;2023-04-03T02:39:22;-0.40;99.90
20881;DHT22;10600;53.096;8.802;2023-04-03T02:40:23;-0.40;99.90
20881;DHT22;10600;53.096;8.802;2023-04-03T02:41:23;-0.40;99.90
20881;DHT22;10600;53.096;8.802;2023-04-03T02:42:26;-0.40;99.90
20881;DHT22;10600;53.096;8.802;2023-04-03T02:43:26;-0.50;99.90
20881;DHT22;10600;53.096;8.802;2023-04-03T02:44:27;-0.50;99.90
20881;DHT22;10600;53.096;8.802;2023-04-03T02:45:28;-0.50;99.90
20881;DHT22;10600;53.096;8.802;2023-04-03T02:46:28;-0.50;99.90
20881;DHT22;10600;53.096;8.802;2023-04-03T02:47:29;-0.60;99.90
20881;DHT22;10600;53.096;8.802;2023-04-03T02:48:30;-0.50;99.90
20881;DHT22;10600;53.096;8.802;2023-04-03T02:49:31;-0.60;99.90
20881;DHT22;10600;53.096;8.802;2023-04-03T02:50:31;-0.60;99.90
20881;DHT22;10600;53.096;8.802;2023-04-03T02:51:32;-0.60;99.90
20881;DHT22;10600;53.096;8.802;2023-04-03T02:52:33;-0.60;99.90
20881;DHT22;10600;53.096;8.802;2023-04-03T02:53:33;-0.60;99.90
20881;DHT22;10600;53.096;8.802;2023-04-03T02:54:34;-0.60;99.90
20881;DHT22;10600;53.096;8.802;2023-04-03T02:55:35;-0.60;99.90
20881;DHT22;10600;53.096;8.802;2023-04-03T02:56:36;-0.70;99.90
20881;DHT22;10600;53.096;8.802;2023-04-03T02:57:36;-0.70;99.90
20881;DHT22;10600;53.096;8.802;2023-04-03T02:58:37;-0.70;99.90
20881;DHT22;10600;53.096;8.802;2023-04-03T02:59:38;-0.70;99.90
20881;DHT22;10600;53.096;8.802;2023-04-03T03:00:42;-0.70;99.90
20881;DHT22;10600;53.096;8.802;2023-04-03T03:01:42;-0.70;99.90
20881;DHT22;10600;53.096;8.802;2023-04-03T03:02:43;-0.70;99.90
20881;DHT22;10600;53.096;8.802;2023-04-03T03:03:44;-0.70;99.90
20881;DHT22;10600;53.096;8.802;2023-04-03T03:04:44;-0.70;99.90
20881;DHT22;10600;53.096;8.802;2023-04-03T03:05:45;-0.80;99.90
20881;DHT22;10600;53.096;8.802;2023-04-03T03:06:46;-0.80;99.90
20881;DHT22;10600;53.096;8.802;2023-04-03T03:07:47;-0.80;99.90
20881;DHT22;10600;53.096;8.802;2023-04-03T03:08:48;-0.80;99.90
20881;DHT22;10600;53.096;8.802;2023-04-03T03:09:48;-0.80;99.90
20881;DHT22;10600;53.096;8.802;2023-04-03T03:10:49;-0.80;99.90
20881;DHT22;10600;53.096;8.802;2023-04-03T03:11:51;-0.80;99.90
20881;DHT22;10600;53.096;8.802;2023-04-03T03:12:52;-0.80;99.90
20881;DHT22;10600;53.096;8.802;2023-04-03T03:13:52;-0.80;99.90
20881;DHT22;10600;53.096;8.802;2023-04-03T03:14:53;-0.80;99.90
20881;DHT22;10600;53.096;8.802;2023-04-03T03:15:54;-0.80;99.90
20881;DHT22;10600;53.096;8.802;2023-04-03T03:16:54;-0.80;99.90
20881;DHT22;10600;53.096;8.802;2023-04-03T03:17:55;-0.80;99.90
20881;DHT22;10600;53.096;8.802;2023-04-03T03:18:56;-0.80;99.90
20881;DHT22;10600;53.096;8.802;2023-04-03T03:19:56;-0.80;99.90
20881;DHT22;10600;53.096;8.802;2023-04-03T03:20:58;-0.80;99.90
20881;DHT22;10600;53.096;8.802;2023-04-03T03:21:59;-0.80;99.90
20881;DHT22;10600;53.096;8.802;2023-04-03T03:23:00;-0.80;99.90
20881;DHT22;10600;53.096;8.802;2023-04-03T03:24:00;-0.80;99.90
20881;DHT22;10600;53.096;8.802;2023-04-03T03:25:02;-0.80;99.90
20881;DHT22;10600;53.096;8.802;2023-04-03T03:26:06;-0.80;99.90
20881;DHT22;10600;53.096;8.802;2023-04-03T03:27:07;-0.80;99.90
20881;DHT22;10600;53.096;8.802;2023-04-03T03:28:07;-0.80;99.90
20881;DHT22;10600;53.096;8.802;2023-04-03T03:29:08;-0.80;99.90
20881;DHT22;10600;53.096;8.802;2023-04-03T03:30:09;-0.80;99.90
20881;DHT22;10600;53.096;8.802;2023-04-03T03:31:10;-0.80;99.90
20881;DHT22;10600;53.096;8.802;2023-04-03T03:32:11;-0.80;99.90
20881;DHT22;10600;53.096;8.802;2023-04-03T03:33:12;-0.70;99.90
20881;DHT22;10600;53.096;8.802;2023-04-03T03:34:12;-0.70;99.90
20881;DHT22;10600;53.096;8.802;2023-04-03T03:35:13;-0.70;99.90
20881;DHT22;10600;53.096;8.802;2023-04-03T03:36:14;-0.60;99.90
20881;DHT22;10600;53.096;8.802;2023-04-03T03:37:14;-0.60;99.90
20881;DHT22;10600;53.096;8.802;2023-04-03T03:38:15;-0.70;99.90
20881;DHT22;10600;53.096;8.802;2023-04-03T03:39:16;-0.60;99.90
20881;DHT22;10600;53.096;8.802;2023-04-03T03:40:17;-0.60;99.90
20881;DHT22;10600;53.096;8.802;2023-04-03T03:41:18;-0.60;99.90
20881;DHT22;10600;53.096;8.802;2023-04-03T03:42:18;-0.60;99.90
20881;DHT22;10600;53.096;8.802;2023-04-03T03:43:19;-0.60;99.90
20881;DHT22;10600;53.096;8.802;2023-04-03T03:44:21;-0.60;99.90
20881;DHT22;10600;53.096;8.802;2023-04-03T03:45:21;-0.70;99.90
20881;DHT22;10600;53.096;8.802;2023-04-03T03:46:22;-0.70;99.90
20881;DHT22;10600;53.096;8.802;2023-04-03T03:47:23;-0.60;99.90
20881;DHT22;10600;53.096;8.802;2023-04-03T03:48:23;-0.70;99.90
20881;DHT22;10600;53.096;8.802;2023-04-03T03:49:24;-0.60;99.90
20881;DHT22;10600;53.096;8.802;2023-04-03T03:50:24;-0.60;99.90
20881;DHT22;10600;53.096;8.802;2023-04-03T03:51:25;-0.60;99.90
20881;DHT22;10600;53.096;8.802;2023-04-03T03:52:26;-0.70;99.90
20881;DHT22;10600;53.096;8.802;2023-04-03T03:53:26;-0.60;99.90
20881;DHT22;10600;53.096;8.802;2023-04-03T03:54:27;-0.70;99.90
20881;DHT22;10600;53.096;8.802;2023-04-03T03:55:28;-0.60;99.90
20881;DHT22;10600;53.096;8.802;2023-04-03T03:56:28;-0.60;99.90
20881;DHT22;10600;53.096;8.802;2023-04-03T03:57:29;-0.60;99.90
20881;DHT22;10600;53.096;8.802;2023-04-03T03:58:30;-0.60;99.90
20881;DHT22;10600;53.096;8.802;2023-04-03T03:59:31;-0.70;99.90
20881;DHT22;10600;53.096;8.802;2023-04-03T04:00:32;-0.70;99.90
20881;DHT22;10600;53.096;8.802;2023-04-03T04:01:33;-0.70;99.90
20881;DHT22;10600;53.096;8.802;2023-04-03T04:02:33;-0.70;99.90
20881;DHT22;10600;53.096;8.802;2023-04-03T04:03:34;-0.70;99.90
20881;DHT22;10600;53.096;8.802;2023-04-03T04:04:35;-0.70;99.90
20881;DHT22;10600;53.096;8.802;2023-04-03T04:05:35;-0.80;99.90
20881;DHT22;10600;53.096;8.802;2023-04-03T04:06:36;-0.70;99.90
20881;DHT22;10600;53.096;8.802;2023-04-03T04:07:37;-0.80;99.90
20881;DHT22;10600;53.096;8.802;2023-04-03T04:08:37;-0.80;99.90
20881;DHT22;10600;53.096;8.802;2023-04-03T04:09:38;-0.80;99.90
20881;DHT22;10600;53.096;8.802;2023-04-03T04:10:39;-0.80;99.90
20881;DHT22;10600;53.096;8.802;2023-04-03T04:11:39;-0.80;99.90
20881;DHT22;10600;53.096;8.802;2023-04-03T04:12:40;-0.80;99.90
20881;DHT22;10600;53.096;8.802;2023-04-03T04:13:41;-0.80;99.90
20881;DHT22;10600;53.096;8.802;2023-04-03T04:14:41;-0.90;99.90
20881;DHT22;10600;53.096;8.802;2023-04-03T04:15:43;-0.90;99.90
20881;DHT22;10600;53.096;8.802;2023-04-03T04:16:43;-0.90;99.90
20881;DHT22;10600;53.096;8.802;2023-04-03T04:17:44;-0.90;99.90
20881;DHT22;10600;53.096;8.802;2023-04-03T04:18:45;-0.90;99.90
20881;DHT22;10600;53.096;8.802;2023-04-03T04:19:45;-0.90;99.90
20881;DHT22;10600;53.096;8.802;2023-04-03T04:20:46;-0.90;99.90
20881;DHT22;10600;53.096;8.802;2023-04-03T04:21:47;-0.90;99.90
20881;DHT22;10600;53.096;8.802;2023-04-03T04:22:47;-0.90;99.90
20881;DHT22;10600;53.096;8.802;2023-04-03T04:23:48;-0.90;99.90
20881;DHT22;10600;53.096;8.802;2023-04-03T04:24:48;-1.00;99.90
20881;DHT22;10600;53.096;8.802;2023-04-03T04:25:50;-1.00;99.90
20881;DHT22;10600;53.096;8.802;2023-04-03T04:26:50;-1.00;99.90
20881;DHT22;10600;53.096;8.802;2023-04-03T04:27:51;-1.00;99.90
20881;DHT22;10600;53.096;8.802;2023-04-03T04:28:52;-1.00;99.90
20881;DHT22;10600;53.096;8.802;2023-04-03T04:29:52;-1.00;99.90
20881;DHT22;10600;53.096;8.802;2023-04-03T04:30:53;-1.00;99.90
20881;DHT22;10600;53.096;8.802;2023-04-03T04:31:54;-1.00;99.90
20881;DHT22;10600;53.096;8.802;2023-04-03T04:32:54;-1.10;99.90
20881;DHT22;10600;53.096;8.802;2023-04-03T04:33:55;-1.10;99.90
20881;DHT22;10600;53.096;8.802;2023-04-03T04:34:56;-1.10;99.90
20881;DHT22;10600;53.096;8.802;2023-04-03T04:35:56;-1.10;99.90
20881;DHT22;10600;53.096;8.802;2023-04-03T04:36:57;-1.10;99.90
20881;DHT22;10600;53.096;8.802;2023-04-03T04:37:58;-1.10;99.90
20881;DHT22;10600;53.096;8.802;2023-04-03T04:38:58;-1.10;99.90
20881;DHT22;10600;53.096;8.802;2023-04-03T04:39:59;-1.10;99.90
20881;DHT22;10600;53.096;8.802;2023-04-03T04:41:00;-1.10;99.90
20881;DHT22;10600;53.096;8.802;2023-04-03T04:42:00;-1.00;99.90
20881;DHT22;10600;53.096;8.802;2023-04-03T04:43:01;-1.10;99.90
20881;DHT22;10600;53.096;8.802;2023-04-03T04:44:02;-1.10;99.90
20881;DHT22;10600;53.096;8.802;2023-04-03T04:45:03;-1.10;99.90
20881;DHT22;10600;53.096;8.802;2023-04-03T04:46:08;-1.10;99.90
20881;DHT22;10600;53.096;8.802;2023-04-03T04:47:09;-1.10;99.90
20881;DHT22;10600;53.096;8.802;2023-04-03T04:48:10;-1.10;99.90
20881;DHT22;10600;53.096;8.802;2023-04-03T04:49:11;-1.10;99.90
20881;DHT22;10600;53.096;8.802;2023-04-03T04:50:11;-1.10;99.90
20881;DHT22;10600;53.096;8.802;2023-04-03T04:51:12;-1.10;99.90
20881;DHT22;10600;53.096;8.802;2023-04-03T04:52:13;-1.10;99.90
20881;DHT22;10600;53.096;8.802;2023-04-03T04:53:13;-1.10;99.90
20881;DHT22;10600;53.096;8.802;2023-04-03T04:54:14;-1.10;99.90
20881;DHT22;10600;53.096;8.802;2023-04-03T04:55:15;-1.10;99.90
20881;DHT22;10600;53.096;8.802;2023-04-03T04:56:15;-1.10;99.90
20881;DHT22;10600;53.096;8.802;2023-04-03T04:57:16;-1.10;99.90
20881;DHT22;10600;53.096;8.802;2023-04-03T04:58:17;-1.10;99.90
20881;DHT22;10600;53.096;8.802;2023-04-03T04:59:18;-1.10;99.90
20881;DHT22;10600;53.096;8.802;2023-04-03T05:00:19;-1.00;99.90
20881;DHT22;10600;53.096;8.802;2023-04-03T05:01:20;-1.00;99.90
20881;DHT22;10600;53.096;8.802;2023-04-03T05:02:21;-1.00;99.90
20881;DHT22;10600;53.096;8.802;2023-04-03T05:03:21;-1.10;99.90
20881;DHT22;10600;53.096;8.802;2023-04-03T05:04:22;-1.00;99.90
20881;DHT22;10600;53.096;8.802;2023-04-03T05:05:22;-1.00;99.90
20881;DHT22;10600;53.096;8.802;2023-04-03T05:06:23;-1.00;99.90
20881;DHT22;10600;53.096;8.802;2023-04-03T05:07:24;-1.00;99.90
20881;DHT22;10600;53.096;8.802;2023-04-03T05:08:25;-1.00;99.90
20881;DHT22;10600;53.096;8.802;2023-04-03T05:09:26;-1.00;99.90
20881;DHT22;10600;53.096;8.802;2023-04-03T05:10:26;-1.00;99.90
20881;DHT22;10600;53.096;8.802;2023-04-03T05:11:27;-1.00;99.90
20881;DHT22;10600;53.096;8.802;2023-04-03T05:12:28;-1.00;99.90
20881;DHT22;10600;53.096;8.802;2023-04-03T05:13:28;-1.00;99.90
20881;DHT22;10600;53.096;8.802;2023-04-03T05:14:29;-1.00;99.90
20881;DHT22;10600;53.096;8.802;2023-04-03T05:15:30;-0.90;99.90
20881;DHT22;10600;53.096;8.802;2023-04-03T05:16:31;-1.00;99.90
20881;DHT22;10600;53.096;8.802;2023-04-03T05:17:31;-0.90;99.90
20881;DHT22;10600;53.096;8.802;2023-04-03T05:18:32;-0.90;99.90
20881;DHT22;10600;53.096;8.802;2023-04-03T05:19:33;-0.90;99.90
20881;DHT22;10600;53.096;8.802;2023-04-03T05:20:34;-0.90;99.90
20881;DHT22;10600;53.096;8.802;2023-04-03T05:21:35;-0.90;99.90
20881;DHT22;10600;53.096;8.802;2023-04-03T05:22:35;-0.90;99.90
20881;DHT22;10600;53.096;8.802;2023-04-03T05:23:36;-0.90;99.90
20881;DHT22;10600;53.096;8.802;2023-04-03T05:24:37;-0.90;99.90
20881;DHT22;10600;53.096;8.802;2023-04-03T05:25:38;-0.90;99.90
20881;DHT22;10600;53.096;8.802;2023-04-03T05:26:39;-0.80;99.90
20881;DHT22;10600;53.096;8.802;2023-04-03T05:27:39;-0.80;99.90
20881;DHT22;10600;53.096;8.802;2023-04-03T05:28:40;-0.80;99.90
20881;DHT22;10600;53.096;8.802;2023-04-03T05:29:41;-0.70;99.90
20881;DHT22;10600;53.096;8.802;2023-04-03T05:30:44;-0.70;99.90
20881;DHT22;10600;53.096;8.802;2023-04-03T05:31:44;-0.70;99.90
20881;DHT22;10600;53.096;8.802;2023-04-03T05:32:45;-0.70;99.90
20881;DHT22;10600;53.096;8.802;2023-04-03T05:33:46;-0.70;99.90
20881;DHT22;10600;53.096;8.802;2023-04-03T05:34:47;-0.60;99.90
20881;DHT22;10600;53.096;8.802;2023-04-03T05:35:48;-0.60;99.90
20881;DHT22;10600;53.096;8.802;2023-04-03T05:36:48;-0.60;99.90
20881;DHT22;10600;53.096;8.802;2023-04-03T05:37:49;-0.50;99.90
20881;DHT22;10600;53.096;8.802;2023-04-03T05:38:49;-0.50;99.90
20881;DHT22;10600;53.096;8.802;2023-04-03T05:39:50;-0.50;99.90
20881;DHT22;10600;53.096;8.802;2023-04-03T05:40:51;-0.50;99.90
20881;DHT22;10600;53.096;8.802;2023-04-03T05:41:51;-0.50;99.90
20881;DHT22;10600;53.096;8.802;2023-04-03T05:42:52;-0.50;99.90
20881;DHT22;10600;53.096;8.802;2023-04-03T05:43:53;-0.40;99.90
20881;DHT22;10600;53.096;8.802;2023-04-03T05:44:55;-0.40;99.90
20881;DHT22;10600;53.096;8.802;2023-04-03T05:45:56;-0.40;99.90
20881;DHT22;10600;53.096;8.802;2023-04-03T05:46:57;-0.40;99.90
20881;DHT22;10600;53.096;8.802;2023-04-03T05:47:57;-0.40;99.90
20881;DHT22;10600;53.096;8.802;2023-04-03T05:48:58;-0.40;99.90
20881;DHT22;10600;53.096;8.802;2023-04-03T05:49:58;-0.30;99.90
20881;DHT22;10600;53.096;8.802;2023-04-03T05:50:59;-0.30;99.90
20881;DHT22;10600;53.096;8.802;2023-04-03T05:52:01;-0.30;99.90
20881;DHT22;10600;53.096;8.802;2023-04-03T05:53:02;-0.30;99.90
20881;DHT22;10600;53.096;8.802;2023-04-03T05:54:23;-0.30;99.90
20881;DHT22;10600;53.096;8.802;2023-04-03T05:55:24;-0.30;99.90
20881;DHT22;10600;53.096;8.802;2023-04-03T05:56:25;-0.20;99.90
20881;DHT22;10600;53.096;8.802;2023-04-03T05:57:26;-0.20;99.90
20881;DHT22;10600;53.096;8.802;2023-04-03T05:58:26;-0.20;99.90
20881;DHT22;10600;53.096;8.802;2023-04-03T05:59:27;-0.20;99.90
20881;DHT22;10600;53.096;8.802;2023-04-03T06:00:28;-0.20;99.90
20881;DHT22;10600;53.096;8.802;2023-04-03T06:01:29;-0.20;99.90
20881;DHT22;10600;53.096;8.802;2023-04-03T06:02:29;-0.20;99.90
20881;DHT22;10600;53.096;8.802;2023-04-03T06:03:31;-0.10;99.90
20881;DHT22;10600;53.096;8.802;2023-04-03T06:04:32;-0.20;99.90
20881;DHT22;10600;53.096;8.802;2023-04-03T06:05:33;-0.10;99.90
20881;DHT22;10600;53.096;8.802;2023-04-03T06:07:51;0.00;99.90
20881;DHT22;10600;53.096;8.802;2023-04-03T06:08:52;0.00;99.90
20881;DHT22;10600;53.096;8.802;2023-04-03T06:09:54;0.00;99.90
20881;DHT22;10600;53.096;8.802;2023-04-03T06:10:56;0.10;99.90
20881;DHT22;10600;53.096;8.802;2023-04-03T06:11:57;0.10;99.90
20881;DHT22;10600;53.096;8.802;2023-04-03T06:12:58;0.10;99.90
20881;DHT22;10600;53.096;8.802;2023-04-03T06:13:59;0.20;99.90
20881;DHT22;10600;53.096;8.802;2023-04-03T06:15:01;0.20;99.90
20881;DHT22;10600;53.096;8.802;2023-04-03T06:16:02;0.20;99.90
20881;DHT22;10600;53.096;8.802;2023-04-03T06:17:04;0.20;99.90
20881;DHT22;10600;53.096;8.802;2023-04-03T06:18:05;0.30;99.90
20881;DHT22;10600;53.096;8.802;2023-04-03T06:19:07;0.30;99.90
20881;DHT22;10600;53.096;8.802;2023-04-03T06:20:09;0.40;99.90
20881;DHT22;10600;53.096;8.802;2023-04-03T06:21:10;0.40;99.90
20881;DHT22;10600;53.096;8.802;2023-04-03T06:22:10;0.40;99.90
20881;DHT22;10600;53.096;8.802;2023-04-03T06:23:12;0.40;99.90
20881;DHT22;10600;53.096;8.802;2023-04-03T06:24:15;0.50;99.90
20881;DHT22;10600;53.096;8.802;2023-04-03T06:25:16;0.50;99.90
20881;DHT22;10600;53.096;8.802;2023-04-03T06:26:19;0.50;99.90
20881;DHT22;10600;53.096;8.802;2023-04-03T06:27:21;0.60;99.90
20881;DHT22;10600;53.096;8.802;2023-04-03T06:28:21;0.60;99.90
20881;DHT22;10600;53.096;8.802;2023-04-03T06:29:22;0.70;99.90
20881;DHT22;10600;53.096;8.802;2023-04-03T06:30:23;0.70;99.90
20881;DHT22;10600;53.096;8.802;2023-04-03T06:31:23;0.70;99.90
20881;DHT22;10600;53.096;8.802;2023-04-03T06:32:24;0.80;99.90
20881;DHT22;10600;53.096;8.802;2023-04-03T06:33:25;0.80;99.90
20881;DHT22;10600;53.096;8.802;2023-04-03T06:34:26;0.80;99.90